Time;durP1;ratioP1;P1;durP2;ratioP2;P2;SDS_P1;SDS_P2;PMS_P1;PMS_P2;Temp;Humidity;BMP_temperature;BMP_pressure;BME280_temperature;BME280_humidity;BME280_pressure;Samples;Min_cycle;Max_cycle;Signal;HPM_P1;HPM_P2
2021/05/16 00:00:41;;;;;;;27.77;4.72;;;;;;;8.98;100.00;100146.25;5226730;28;20025;-85
2021/05/16 00:03:11;;;;;;;31.15;4.82;;;;;;;8.88;100.00;100143.78;5227196;28;20435;-85
2021/05/16 00:05:42;;;;;;;31.77;4.45;;;;;;;8.85;100.00;100154.00;5227054;28;20027;-85
2021/05/16 00:08:14;;;;;;;31.38;4.60;;;;;;;8.76;100.00;100156.69;5226814;28;20036;-85
2021/05/16 00:10:44;;;;;;;32.35;4.57;;;;;;;8.65;100.00;100151.72;5226480;28;20035;-85
2021/05/16 00:13:15;;;;;;;27.88;4.03;;;;;;;8.65;100.00;100153.56;5227086;28;20033;-86
2021/05/16 00:15:46;;;;;;;34.47;5.40;;;;;;;8.53;100.00;100153.91;5242464;28;20024;-85
2021/05/16 00:18:16;;;;;;;46.13;6.28;;;;;;;8.65;100.00;100156.22;5227125;28;20484;-85
2021/05/16 00:20:47;;;;;;;38.10;6.78;;;;;;;8.64;100.00;100151.91;5226205;28;20042;-85
2021/05/16 00:23:18;;;;;;;56.40;6.35;;;;;;;8.60;100.00;100150.56;5226769;28;20502;-85
2021/05/16 00:25:48;;;;;;;27.67;5.25;;;;;;;8.59;100.00;100146.22;5226602;28;20429;-85
2021/05/16 00:28:19;;;;;;;32.22;5.45;;;;;;;8.52;100.00;100157.56;5226467;28;20025;-85
2021/05/16 00:30:51;;;;;;;34.42;4.95;;;;;;;8.47;100.00;100148.41;5226406;28;20029;-84
2021/05/16 00:33:22;;;;;;;25.10;3.78;;;;;;;8.37;100.00;100142.41;5226884;28;20036;-85
2021/05/16 00:35:52;;;;;;;38.63;5.57;;;;;;;8.34;100.00;100154.25;5226843;28;20143;-85
2021/05/16 00:38:23;;;;;;;35.00;4.75;;;;;;;8.32;100.00;100150.88;5226817;28;20029;-85
2021/05/16 00:40:53;;;;;;;30.27;4.75;;;;;;;8.31;100.00;100157.25;5226503;28;20032;-85
2021/05/16 00:43:24;;;;;;;30.95;5.00;;;;;;;8.22;100.00;100151.06;5224884;28;20492;-85
2021/05/16 00:45:54;;;;;;;33.65;4.55;;;;;;;8.18;100.00;100149.75;5224876;28;20029;-85
2021/05/16 00:48:25;;;;;;;36.65;4.70;;;;;;;8.15;100.00;100157.25;5225029;28;20033;-85
2021/05/16 00:50:55;;;;;;;26.25;3.92;;;;;;;8.07;100.00;100150.06;5224851;28;20108;-85
2021/05/16 00:53:26;;;;;;;32.70;5.55;;;;;;;8.03;100.00;100162.06;5226100;28;20472;-85
2021/05/16 00:55:57;;;;;;;31.70;5.55;;;;;;;7.94;100.00;100153.25;5226383;28;20016;-85
2021/05/16 00:58:28;;;;;;;37.80;4.28;;;;;;;7.87;100.00;100154.88;5226141;28;20127;-85
2021/05/16 01:00:59;;;;;;;24.08;3.95;;;;;;;7.76;100.00;100155.22;5225605;28;20484;-85
2021/05/16 01:03:32;;;;;;;29.00;4.15;;;;;;;7.72;100.00;100146.69;5226681;28;20576;-85
2021/05/16 01:06:03;;;;;;;31.67;4.80;;;;;;;7.68;100.00;100139.19;5226292;28;20086;-85
2021/05/16 01:08:34;;;;;;;31.60;5.63;;;;;;;7.64;100.00;100132.53;5225884;28;20404;-85
2021/05/16 01:11:04;;;;;;;38.10;4.50;;;;;;;7.53;100.00;100133.69;5225875;28;20047;-85
2021/05/16 01:13:36;;;;;;;31.48;4.18;;;;;;;7.43;100.00;100144.50;5225942;28;20021;-85
2021/05/16 01:16:07;;;;;;;35.13;5.40;;;;;;;7.39;100.00;100136.97;5226131;28;20040;-85
2021/05/16 01:18:38;;;;;;;36.30;5.60;;;;;;;7.52;100.00;100130.16;5225975;28;20431;-85
2021/05/16 01:21:17;;;;;;;29.15;4.07;;;;;;;7.48;100.00;100131.50;5225841;28;20459;-85
2021/05/16 01:23:48;;;;;;;41.30;4.57;;;;;;;7.49;100.00;100132.31;5225742;28;20472;-85
2021/05/16 01:26:19;;;;;;;30.25;4.20;;;;;;;7.56;100.00;100135.16;5225768;28;20028;-85
2021/05/16 01:28:49;;;;;;;34.17;5.28;;;;;;;7.58;100.00;100136.69;5225756;28;20051;-85
2021/05/16 01:31:20;;;;;;;43.75;6.25;;;;;;;7.58;100.00;100135.81;5224995;28;20035;-85
2021/05/16 01:33:50;;;;;;;29.88;3.72;;;;;;;7.48;100.00;100134.16;5225657;28;20531;-85
2021/05/16 01:36:21;;;;;;;41.40;4.80;;;;;;;7.39;100.00;100144.97;5225489;28;20595;-85
2021/05/16 01:38:52;;;;;;;28.25;3.63;;;;;;;7.27;100.00;100141.75;5225874;28;20140;-85
2021/05/16 01:41:23;;;;;;;24.05;4.22;;;;;;;7.22;100.00;100144.91;5225082;28;20017;-85
2021/05/16 01:43:55;;;;;;;28.33;4.30;;;;;;;7.14;100.00;100150.22;5225763;28;20025;-86
2021/05/16 01:46:26;;;;;;;27.65;6.03;;;;;;;7.06;100.00;100144.03;5225169;28;20040;-85
2021/05/16 01:48:56;;;;;;;26.75;4.20;;;;;;;7.00;100.00;100150.84;5225504;28;20021;-85
2021/05/16 01:51:29;;;;;;;29.92;4.05;;;;;;;6.90;100.00;100142.13;5222449;28;20028;-85
2021/05/16 01:54:00;;;;;;;41.25;4.60;;;;;;;6.86;100.00;100151.44;5225153;28;20416;-85
2021/05/16 01:56:30;;;;;;;38.53;6.03;;;;;;;6.77;100.00;100145.22;5224885;28;20029;-85
2021/05/16 01:59:03;;;;;;;30.90;4.75;;;;;;;6.72;100.00;100150.19;5224926;28;20051;-85
2021/05/16 02:01:33;;;;;;;29.75;4.32;;;;;;;6.78;100.00;100151.38;5224639;28;20017;-85
2021/05/16 02:04:08;;;;;;;23.35;4.30;;;;;;;6.77;100.00;100147.03;5225098;28;20032;-85
2021/05/16 02:06:39;;;;;;;37.03;4.25;;;;;;;6.84;100.00;100151.59;5224917;28;20024;-85
2021/05/16 02:09:10;;;;;;;30.55;6.47;;;;;;;6.92;100.00;100148.13;5224442;28;20492;-85
2021/05/16 02:11:44;;;;;;;32.67;5.05;;;;;;;7.09;100.00;100149.06;5225568;28;20028;-85
2021/05/16 02:14:30;;;;;;;30.98;3.88;;;;;;;7.15;100.00;100143.06;5224965;28;20494;-85
2021/05/16 02:17:03;;;;;;;31.70;4.90;;;;;;;7.30;100.00;100154.78;5223874;28;20032;-85
2021/05/16 02:19:33;;;;;;;36.90;4.85;;;;;;;7.48;100.00;100157.31;5223322;28;20025;-85
2021/05/16 02:22:04;;;;;;;37.47;4.57;;;;;;;7.58;100.00;100149.16;5223491;28;20025;-85
2021/05/16 02:24:35;;;;;;;29.20;3.78;;;;;;;7.66;100.00;100141.19;5224912;28;20060;-85
2021/05/16 02:27:05;;;;;;;27.40;3.45;;;;;;;7.86;100.00;100153.22;5224437;28;20028;-85
2021/05/16 02:29:36;;;;;;;28.20;4.25;;;;;;;7.89;100.00;100152.91;5224098;28;20403;-85
2021/05/16 02:32:07;;;;;;;23.80;4.25;;;;;;;7.88;100.00;100145.91;5224648;28;20487;-85
2021/05/16 02:34:38;;;;;;;32.05;4.13;;;;;;;7.92;100.00;100155.22;5224533;28;20044;-85
2021/05/16 02:37:08;;;;;;;36.50;6.43;;;;;;;7.98;100.00;100145.72;5224589;28;20036;-85
2021/05/16 02:39:39;;;;;;;31.58;3.97;;;;;;;7.84;100.00;100136.56;5224244;28;20484;-85
2021/05/16 02:42:09;;;;;;;35.67;6.05;;;;;;;7.72;100.00;100148.53;5224333;28;20492;-85
2021/05/16 02:44:40;;;;;;;31.33;4.72;;;;;;;7.66;100.00;100144.69;5224380;28;20025;-85
2021/05/16 02:47:10;;;;;;;28.25;5.63;;;;;;;7.57;100.00;100145.66;5224518;28;20029;-85
2021/05/16 02:49:41;;;;;;;31.88;4.65;;;;;;;7.47;100.00;100142.31;5224849;28;20028;-85
2021/05/16 02:52:11;;;;;;;29.65;4.57;;;;;;;7.38;100.00;100143.28;5223237;28;20036;-85
2021/05/16 02:54:43;;;;;;;23.48;3.33;;;;;;;7.24;100.00;100145.59;5222688;28;20035;-85
2021/05/16 02:57:13;;;;;;;19.33;4.13;;;;;;;7.19;100.00;100147.09;5218560;28;20155;-85
2021/05/16 02:59:44;;;;;;;24.38;4.00;;;;;;;7.08;100.00;100147.34;5224327;28;20115;-85
2021/05/16 03:02:16;;;;;;;34.05;4.18;;;;;;;7.05;100.00;100151.19;5224506;28;20036;-85
2021/05/16 03:04:46;;;;;;;27.80;3.80;;;;;;;6.97;100.00;100154.63;5224754;28;20017;-85
2021/05/16 03:07:17;;;;;;;22.58;3.55;;;;;;;6.93;100.00;100145.31;5223582;28;20040;-85
2021/05/16 03:09:48;;;;;;;29.85;5.28;;;;;;;6.87;100.00;100153.09;5224281;28;20029;-86
2021/05/16 03:12:18;;;;;;;24.70;4.00;;;;;;;6.77;100.00;100153.22;5223961;28;20017;-85
2021/05/16 03:14:49;;;;;;;20.60;3.60;;;;;;;6.68;100.00;100151.53;5226987;28;20484;-85
2021/05/16 03:17:19;;;;;;;25.27;4.32;;;;;;;6.50;100.00;100146.22;5228281;28;20052;-85
2021/05/16 03:19:50;;;;;;;25.15;3.20;;;;;;;6.32;100.00;100146.28;5226518;28;20472;-85
2021/05/16 03:22:20;;;;;;;32.38;5.55;;;;;;;6.18;100.00;100145.03;5228096;28;20029;-85
2021/05/16 03:24:51;;;;;;;26.10;5.57;;;;;;;6.07;100.00;100139.91;5227902;28;20025;-85
2021/05/16 03:27:22;;;;;;;26.05;4.57;;;;;;;5.97;100.00;100136.50;5228110;28;20477;-85
2021/05/16 03:29:53;;;;;;;36.20;6.25;;;;;;;5.93;100.00;100135.16;5228045;28;20476;-85
2021/05/16 03:32:23;;;;;;;27.63;4.63;;;;;;;5.88;100.00;100137.44;5227501;28;20071;-85
2021/05/16 03:34:54;;;;;;;42.05;7.13;;;;;;;5.81;100.00;100144.34;5227618;28;20056;-85
2021/05/16 03:37:26;;;;;;;41.05;5.13;;;;;;;5.74;100.00;100137.97;5227783;28;20025;-85
2021/05/16 03:39:56;;;;;;;24.95;4.93;;;;;;;5.70;100.00;100140.06;5227362;28;20021;-85
2021/05/16 03:42:27;;;;;;;36.95;5.13;;;;;;;5.71;100.00;100142.56;5227630;28;20484;-85
2021/05/16 03:44:58;;;;;;;28.35;5.15;;;;;;;5.76;100.00;100144.78;5227282;28;20056;-85
2021/05/16 03:47:30;;;;;;;28.80;5.45;;;;;;;5.92;100.00;100145.00;5227678;28;20112;-85
2021/05/16 03:50:02;;;;;;;45.63;6.45;;;;;;;6.05;100.00;100146.41;5227336;28;20154;-85
2021/05/16 03:52:33;;;;;;;44.00;7.50;;;;;;;6.23;100.00;100149.88;5227463;28;20037;-85
2021/05/16 03:55:04;;;;;;;32.83;6.60;;;;;;;6.36;100.00;100152.97;5227243;28;20037;-85
2021/05/16 03:57:35;;;;;;;45.00;6.30;;;;;;;6.44;100.00;100149.53;5221321;28;20055;-85
2021/05/16 04:00:07;;;;;;;34.70;5.50;;;;;;;6.48;100.00;100157.06;5227086;28;20490;-85
2021/05/16 04:02:39;;;;;;;30.40;4.90;;;;;;;6.53;100.00;100156.59;5227163;28;20150;-85
2021/05/16 04:05:10;;;;;;;37.88;5.80;;;;;;;6.47;100.00;100150.03;5226093;28;20367;-85
2021/05/16 04:07:41;;;;;;;33.63;5.07;;;;;;;6.49;100.00;100160.56;5226748;28;20044;-85
2021/05/16 04:10:12;;;;;;;35.92;6.40;;;;;;;6.59;100.00;100165.78;5226985;28;20043;-85
2021/05/16 04:12:43;;;;;;;44.17;6.90;;;;;;;6.68;100.00;100164.84;5226938;28;20075;-85
2021/05/16 04:15:13;;;;;;;43.83;6.00;;;;;;;6.70;100.00;100171.69;5227461;28;20029;-85
2021/05/16 04:17:43;;;;;;;33.58;5.32;;;;;;;6.70;100.00;100166.34;5227109;28;20491;-85
2021/05/16 04:20:14;;;;;;;45.33;4.75;;;;;;;6.69;100.00;100159.34;5226361;28;20036;-85
2021/05/16 04:22:44;;;;;;;39.83;5.10;;;;;;;6.72;100.00;100174.19;5226922;28;20021;-85
2021/05/16 04:25:15;;;;;;;31.27;5.35;;;;;;;6.71;100.00;100167.19;5226481;28;20028;-85
2021/05/16 04:27:45;;;;;;;41.35;8.20;;;;;;;6.70;100.00;100170.84;5227389;28;20046;-85
2021/05/16 04:30:16;;;;;;;35.30;6.40;;;;;;;6.70;100.00;100169.00;5226415;28;20056;-85
2021/05/16 04:32:47;;;;;;;30.60;4.40;;;;;;;6.75;100.00;100169.38;5226328;28;20499;-85
2021/05/16 04:35:18;;;;;;;28.40;5.03;;;;;;;6.86;100.00;100172.75;5226579;28;20476;-85
2021/05/16 04:37:48;;;;;;;34.53;5.35;;;;;;;6.78;100.00;100173.56;5226422;28;20032;-86
2021/05/16 04:40:19;;;;;;;28.08;4.47;;;;;;;6.77;100.00;100173.72;5226280;28;20029;-85
2021/05/16 04:42:49;;;;;;;36.67;5.38;;;;;;;6.79;100.00;100169.06;5225376;28;20248;-85
2021/05/16 04:45:20;;;;;;;38.45;5.40;;;;;;;6.86;100.00;100175.44;5224810;28;20060;-85
2021/05/16 04:47:50;;;;;;;30.45;5.18;;;;;;;6.98;100.00;100179.50;5226707;28;20116;-85
2021/05/16 04:50:21;;;;;;;28.67;5.00;;;;;;;7.03;100.00;100179.00;5226326;28;20021;-85
2021/05/16 04:52:51;;;;;;;30.27;5.85;;;;;;;7.16;100.00;100172.22;5226107;28;20408;-85
2021/05/16 04:55:22;;;;;;;45.45;5.70;;;;;;;7.32;100.00;100178.63;5226532;28;20115;-86
2021/05/16 04:57:53;;;;;;;29.50;4.60;;;;;;;7.47;100.00;100177.00;5225963;28;20017;-86
2021/05/16 05:00:24;;;;;;;27.95;5.05;;;;;;;7.66;100.00;100175.91;5226217;28;20382;-85
2021/05/16 05:02:55;;;;;;;28.30;4.90;;;;;;;7.77;100.00;100173.75;5226370;28;20056;-85
2021/05/16 05:05:26;;;;;;;19.00;4.63;;;;;;;7.94;100.00;100177.28;5226474;28;20029;-85
2021/05/16 05:07:57;;;;;;;20.70;4.22;;;;;;;8.13;100.00;100180.63;5226655;28;20025;-85
2021/05/16 05:10:27;;;;;;;26.75;6.00;;;;;;;8.22;100.00;100180.44;5226309;28;20029;-85
2021/05/16 05:12:58;;;;;;;35.72;7.88;;;;;;;8.39;100.00;100176.00;5226292;28;20239;-85
2021/05/16 05:15:28;;;;;;;25.83;5.80;;;;;;;8.59;100.00;100178.31;5227586;28;20029;-85
2021/05/16 05:17:59;;;;;;;23.02;5.00;;;;;;;8.70;100.00;100175.28;5215307;28;20104;-85
2021/05/16 05:20:29;;;;;;;18.08;3.58;;;;;;;8.90;100.00;100175.72;5217557;28;20021;-85
2021/05/16 05:23:00;;;;;;;17.70;4.35;;;;;;;9.26;100.00;100189.47;5225444;28;20021;-85
2021/05/16 05:25:31;;;;;;;20.75;4.35;;;;;;;9.97;100.00;100176.84;5225579;28;20048;-85
2021/05/16 05:28:01;;;;;;;26.75;4.70;;;;;;;11.03;100.00;100192.00;5225302;28;20029;-85
2021/05/16 05:30:32;;;;;;;17.35;4.32;;;;;;;11.59;100.00;100178.88;5224375;28;20024;-85
2021/05/16 05:33:03;;;;;;;18.02;4.68;;;;;;;11.22;100.00;100186.06;5225502;28;20037;-85
2021/05/16 05:35:33;;;;;;;21.10;3.58;;;;;;;11.70;100.00;100183.78;5226394;28;20032;-85
2021/05/16 05:38:04;;;;;;;18.63;4.03;;;;;;;11.78;100.00;100188.19;5224384;28;20115;-86
2021/05/16 05:40:35;;;;;;;18.55;4.25;;;;;;;12.06;100.00;100180.25;5225938;28;20021;-85
2021/05/16 05:43:05;;;;;;;22.02;3.45;;;;;;;11.98;100.00;100175.81;5224124;28;20043;-86
2021/05/16 05:45:37;;;;;;;21.33;4.43;;;;;;;12.76;100.00;100174.00;5224535;28;20028;-86
2021/05/16 05:48:08;;;;;;;15.43;4.22;;;;;;;13.22;100.00;100178.84;5223484;28;20059;-86
2021/05/16 05:50:38;;;;;;;16.60;3.65;;;;;;;12.70;100.00;100181.00;5227782;28;20064;-85
2021/05/16 05:53:09;;;;;;;24.83;3.70;;;;;;;12.09;100.00;100177.97;5228689;28;20043;-86
2021/05/16 05:55:39;;;;;;;21.13;3.83;;;;;;;11.89;100.00;100185.84;5227278;28;20064;-85
2021/05/16 05:58:09;;;;;;;25.63;4.07;;;;;;;11.74;100.00;100187.72;5230125;28;20029;-85
2021/05/16 06:00:40;;;;;;;23.65;4.38;;;;;;;11.79;100.00;100187.16;5237993;28;20044;-85
2021/05/16 06:03:10;;;;;;;19.92;4.38;;;;;;;11.96;100.00;100188.63;5226081;28;20049;-85
2021/05/16 06:05:41;;;;;;;20.73;4.97;;;;;;;12.32;100.00;100195.78;5227463;28;20040;-85
2021/05/16 06:08:11;;;;;;;21.60;4.53;;;;;;;11.72;100.00;100195.16;5227444;28;20029;-85
2021/05/16 06:10:42;;;;;;;26.80;4.10;;;;;;;11.48;100.00;100196.31;5230890;28;20071;-84
2021/05/16 06:13:13;;;;;;;18.08;4.32;;;;;;;11.32;100.00;100194.66;5229040;28;20025;-85
2021/05/16 06:15:44;;;;;;;17.75;5.15;;;;;;;11.08;100.00;100203.00;5225149;28;20029;-85
2021/05/16 06:18:15;;;;;;;22.48;4.07;;;;;;;11.07;100.00;100201.34;5225211;28;20111;-85
2021/05/16 06:20:45;;;;;;;22.63;4.60;;;;;;;10.90;100.00;100203.38;5224449;28;20536;-85
2021/05/16 06:23:17;;;;;;;25.63;5.32;;;;;;;10.77;100.00;100195.97;5223673;28;20585;-85
2021/05/16 06:25:48;;;;;;;21.85;4.82;;;;;;;10.85;100.00;100197.75;5225786;28;20103;-84
2021/05/16 06:28:18;;;;;;;24.65;4.80;;;;;;;10.96;100.00;100197.28;5225815;28;20056;-86
2021/05/16 06:30:49;;;;;;;19.92;4.53;;;;;;;11.07;100.00;100198.66;5225576;28;20522;-85
2021/05/16 06:33:19;;;;;;;24.10;4.95;;;;;;;11.09;100.00;100194.78;5225915;28;20538;-83
2021/05/16 06:35:50;;;;;;;26.60;5.15;;;;;;;11.27;100.00;100197.06;5225674;28;20115;-85
2021/05/16 06:38:20;;;;;;;21.77;4.70;;;;;;;11.18;100.00;100200.88;5225538;28;20392;-85
2021/05/16 06:40:51;;;;;;;18.85;4.15;;;;;;;11.46;100.00;100202.91;5225131;28;20040;-85
2021/05/16 06:43:21;;;;;;;23.48;4.63;;;;;;;11.73;100.00;100212.09;5226835;28;20044;-85
2021/05/16 06:45:52;;;;;;;18.40;4.20;;;;;;;11.78;100.00;100201.63;5225050;28;20263;-85
2021/05/16 06:48:22;;;;;;;23.63;3.60;;;;;;;11.90;100.00;100197.47;5226022;28;20036;-84
2021/05/16 06:50:54;;;;;;;25.75;4.40;;;;;;;12.30;100.00;100204.06;5226191;28;20029;-85
2021/05/16 06:53:24;;;;;;;17.55;3.85;;;;;;;12.29;100.00;100199.69;5229765;28;20128;-85
2021/05/16 06:55:54;;;;;;;19.40;4.10;;;;;;;12.49;100.00;100201.72;5228292;28;20116;-85
2021/05/16 06:58:25;;;;;;;18.58;5.18;;;;;;;12.53;100.00;100211.91;5228661;28;20029;-85
2021/05/16 07:00:56;;;;;;;22.02;4.90;;;;;;;12.63;100.00;100214.25;5227591;28;20021;-85
2021/05/16 07:03:26;;;;;;;19.95;4.00;;;;;;;12.70;100.00;100209.75;5228818;28;20303;-84
2021/05/16 07:05:57;;;;;;;15.20;3.58;;;;;;;12.80;100.00;100204.88;5228773;28;20033;-85
2021/05/16 07:08:27;;;;;;;19.65;3.40;;;;;;;12.94;100.00;100206.59;5230297;28;20118;-85
2021/05/16 07:10:58;;;;;;;16.73;3.63;;;;;;;13.00;100.00;100210.38;5227230;28;20036;-85
2021/05/16 07:13:29;;;;;;;23.55;4.75;;;;;;;13.04;100.00;100206.25;5227700;28;20032;-85
2021/05/16 07:15:59;;;;;;;26.73;3.35;;;;;;;13.06;100.00;100211.47;5226563;28;20377;-86
2021/05/16 07:18:30;;;;;;;17.52;3.97;;;;;;;12.89;100.00;100200.97;5226246;28;20075;-86
2021/05/16 07:21:00;;;;;;;23.63;3.30;;;;;;;13.04;100.00;100200.88;5227278;28;20017;-85
2021/05/16 07:23:31;;;;;;;20.80;2.60;;;;;;;13.19;100.00;100206.97;5227827;28;20264;-85
2021/05/16 07:26:01;;;;;;;18.08;3.30;;;;;;;13.24;100.00;100211.78;5229693;28;20068;-85
2021/05/16 07:28:32;;;;;;;26.45;4.47;;;;;;;13.53;100.00;100201.78;5227123;28;20025;-84
2021/05/16 07:31:02;;;;;;;19.65;3.92;;;;;;;13.71;100.00;100207.47;5228408;28;20029;-85
2021/05/16 07:33:33;;;;;;;19.63;4.82;;;;;;;13.94;100.00;100201.69;5229230;28;20033;-84
2021/05/16 07:36:06;;;;;;;13.98;3.22;;;;;;;14.14;100.00;100207.97;5229213;28;20048;-86
2021/05/16 07:38:37;;;;;;;17.27;3.17;;;;;;;14.03;100.00;100211.28;5215012;28;20028;-85
2021/05/16 07:41:07;;;;;;;15.82;3.22;;;;;;;14.13;100.00;100198.22;5227615;28;20017;-85
2021/05/16 07:43:38;;;;;;;18.70;3.22;;;;;;;14.30;100.00;100205.91;5228208;28;20358;-85
2021/05/16 07:46:08;;;;;;;16.60;3.65;;;;;;;14.43;100.00;100200.53;5227269;28;20048;-85
2021/05/16 07:48:39;;;;;;;18.48;2.88;;;;;;;14.72;100.00;100205.53;5226721;28;20437;-85
2021/05/16 07:51:09;;;;;;;14.93;2.63;;;;;;;15.06;100.00;100216.28;5227281;28;20488;-85
2021/05/16 07:53:40;;;;;;;19.63;2.90;;;;;;;14.87;100.00;100204.50;5227917;28;20021;-84
2021/05/16 07:56:10;;;;;;;15.48;2.90;;;;;;;14.87;100.00;100208.03;5226733;28;20079;-85
2021/05/16 07:58:41;;;;;;;15.98;2.60;;;;;;;14.67;100.00;100209.91;5227638;28;20066;-85
2021/05/16 08:01:12;;;;;;;18.35;2.85;;;;;;;14.66;100.00;100217.19;5228515;28;20028;-85
2021/05/16 08:03:42;;;;;;;18.80;3.08;;;;;;;14.69;100.00;100219.44;5229761;28;20021;-85
2021/05/16 08:06:13;;;;;;;20.55;3.55;;;;;;;14.66;100.00;100219.88;5229465;28;20531;-85
2021/05/16 08:08:44;;;;;;;14.57;2.90;;;;;;;14.43;100.00;100217.56;5228627;28;20091;-85
2021/05/16 08:11:15;;;;;;;12.82;2.88;;;;;;;14.49;100.00;100210.53;5227864;28;20464;-85
2021/05/16 08:13:45;;;;;;;22.25;3.28;;;;;;;14.54;100.00;100202.63;5227564;28;20025;-86
2021/05/16 08:16:15;;;;;;;13.95;3.30;;;;;;;14.48;100.00;100206.16;5227864;28;20037;-85
2021/05/16 08:18:47;;;;;;;20.13;3.65;;;;;;;14.28;100.00;100200.72;5229312;28;20056;-85
2021/05/16 08:21:20;;;;;;;15.43;2.85;;;;;;;14.15;100.00;100208.78;5230015;28;20083;-85
2021/05/16 08:23:50;;;;;;;13.98;3.60;;;;;;;14.02;100.00;100201.53;5228409;28;20033;-86
2021/05/16 08:26:20;;;;;;;22.75;3.55;;;;;;;14.36;100.00;100192.44;5228069;28;20476;-86
2021/05/16 08:28:51;;;;;;;20.13;3.63;;;;;;;14.62;100.00;100194.34;5228758;28;20025;-85
2021/05/16 08:31:21;;;;;;;17.17;3.40;;;;;;;14.83;100.00;100187.88;5227697;28;20468;-85
2021/05/16 08:33:52;;;;;;;21.80;3.95;;;;;;;14.77;100.00;100181.44;5228669;28;20064;-85
2021/05/16 08:36:22;;;;;;;17.50;3.80;;;;;;;14.99;100.00;100189.31;5225449;28;20047;-86
2021/05/16 08:38:53;;;;;;;12.77;2.88;;;;;;;15.42;100.00;100184.19;5225766;28;20037;-86
2021/05/16 08:41:23;;;;;;;16.33;3.20;;;;;;;15.20;100.00;100180.91;5226054;28;20040;-87
2021/05/16 08:43:54;;;;;;;12.88;2.53;;;;;;;15.31;100.00;100181.31;5227190;28;20039;-86
2021/05/16 08:46:25;;;;;;;9.98;2.50;;;;;;;15.47;100.00;100175.44;5228082;28;20021;-86
2021/05/16 08:48:55;;;;;;;14.57;2.72;;;;;;;15.85;100.00;100172.75;5225185;28;20047;-86
2021/05/16 08:51:26;;;;;;;12.45;2.50;;;;;;;15.92;100.00;100180.88;5226284;28;20369;-86
2021/05/16 08:53:56;;;;;;;11.00;2.60;;;;;;;15.52;100.00;100173.75;5227706;28;20025;-85
2021/05/16 08:56:27;;;;;;;13.18;2.83;;;;;;;15.53;100.00;100175.41;5227709;28;20025;-85
2021/05/16 08:58:57;;;;;;;14.43;3.65;;;;;;;15.49;100.00;100173.34;5227636;28;20053;-86
2021/05/16 09:01:33;;;;;;;11.70;2.63;;;;;;;15.43;100.00;100169.63;5227673;28;20032;-86
2021/05/16 09:04:19;;;;;;;15.88;2.90;;;;;;;15.32;100.00;100178.41;5228913;28;20029;-86
2021/05/16 09:06:52;;;;;;;12.00;2.75;;;;;;;15.02;100.00;100175.38;5226973;28;20153;-85
2021/05/16 09:09:25;;;;;;;15.43;3.40;;;;;;;15.21;100.00;100181.75;5228672;28;20435;-85
2021/05/16 09:11:58;;;;;;;13.52;3.00;;;;;;;15.69;100.00;100176.81;5226788;28;20028;-86
2021/05/16 09:14:51;;;;;;;15.23;3.03;;;;;;;16.34;100.00;100167.66;5228965;28;20033;-86
2021/05/16 09:17:24;;;;;;;12.68;2.58;;;;;;;16.66;100.00;100173.81;5226685;28;20427;-86
2021/05/16 09:19:58;;;;;;;13.30;2.75;;;;;;;16.81;86.93;100161.63;5226598;28;20035;-86
2021/05/16 09:22:33;;;;;;;13.60;2.92;;;;;;;16.54;100.00;100162.91;5228802;28;20017;-85
2021/05/16 09:25:06;;;;;;;16.25;3.30;;;;;;;16.14;100.00;100157.81;5228236;28;20029;-86
2021/05/16 09:27:37;;;;;;;8.02;2.67;;;;;;;16.12;100.00;100149.09;5228855;28;20033;-85
2021/05/16 09:30:15;;;;;;;11.38;2.67;;;;;;;16.24;100.00;100157.31;5228786;28;20029;-85
2021/05/16 09:32:59;;;;;;;14.88;3.15;;;;;;;16.40;100.00;100148.66;5227692;28;20096;-86
2021/05/16 09:35:39;;;;;;;14.07;2.90;;;;;;;16.71;100.00;100152.31;5228037;28;20056;-86
2021/05/16 09:38:11;;;;;;;12.45;4.47;;;;;;;17.02;95.81;100156.84;5226536;28;20495;-86
2021/05/16 09:40:48;;;;;;;12.27;3.05;;;;;;;16.49;87.61;100160.03;5227640;28;20111;-85
2021/05/16 09:43:32;;;;;;;12.65;3.38;;;;;;;16.10;96.92;100167.41;5225853;28;20025;-86
2021/05/16 09:46:05;;;;;;;12.75;3.28;;;;;;;15.47;92.86;100167.34;5227445;28;20473;-86
2021/05/16 09:48:39;;;;;;;13.30;2.45;;;;;;;14.79;100.00;100177.69;5226389;28;20035;-85
2021/05/16 09:51:11;;;;;;;10.90;2.50;;;;;;;14.03;100.00;100164.59;5225384;28;20047;-86
2021/05/16 09:53:46;;;;;;;9.60;2.13;;;;;;;13.93;100.00;100156.91;5224052;28;20040;-87
2021/05/16 09:56:28;;;;;;;14.87;4.07;;;;;;;14.06;100.00;100158.81;5224584;28;20033;-87
2021/05/16 09:59:02;;;;;;;13.38;4.53;;;;;;;14.48;100.00;100157.59;5221271;28;20283;-86
2021/05/16 10:01:33;;;;;;;19.95;4.47;;;;;;;14.76;100.00;100155.50;5225477;28;20039;-85
2021/05/16 10:04:06;;;;;;;18.88;4.78;;;;;;;14.94;100.00;100152.13;5225075;28;20391;-86
2021/05/16 10:06:36;;;;;;;17.75;4.50;;;;;;;15.21;100.00;100154.72;5225414;28;20032;-86
2021/05/16 10:09:07;;;;;;;14.80;4.80;;;;;;;15.45;100.00;100148.59;5225121;28;20079;-86
2021/05/16 10:11:38;;;;;;;17.38;5.07;;;;;;;15.99;100.00;100135.66;5224652;28;20021;-86
2021/05/16 10:14:13;;;;;;;17.20;4.88;;;;;;;16.19;100.00;100130.09;5224591;28;20036;-86
2021/05/16 10:16:47;;;;;;;15.85;4.47;;;;;;;16.20;100.00;100121.75;5225065;28;20040;-85
2021/05/16 10:19:23;;;;;;;15.40;3.25;;;;;;;16.46;100.00;100130.69;5225435;28;20021;-86
2021/05/16 10:22:17;;;;;;;15.35;3.35;;;;;;;16.23;100.00;100115.91;5225481;28;20490;-85
2021/05/16 10:24:49;;;;;;;13.68;3.22;;;;;;;16.67;100.00;100115.94;5227735;28;20043;-86
2021/05/16 10:27:25;;;;;;;18.17;3.15;;;;;;;16.94;100.00;100120.03;5224756;28;20112;-86
2021/05/16 10:29:58;;;;;;;15.82;2.60;;;;;;;17.17;100.00;100119.38;5226777;28;20435;-86
2021/05/16 10:32:35;;;;;;;13.82;2.72;;;;;;;17.30;100.00;100110.22;5226826;28;20028;-86
2021/05/16 10:35:09;;;;;;;12.57;2.97;;;;;;;17.56;94.13;100114.47;5224944;28;20113;-86
2021/05/16 10:37:45;;;;;;;5.68;1.77;;;;;;;17.17;100.00;100105.81;5225625;28;20388;-86
2021/05/16 10:40:22;;;;;;;12.05;2.65;;;;;;;17.53;100.00;100101.38;5214542;28;20567;-86
2021/05/16 10:42:56;;;;;;;9.05;2.67;;;;;;;17.98;96.60;100095.53;5226931;28;20393;-85
2021/05/16 10:45:34;;;;;;;12.30;2.33;;;;;;;17.55;77.25;100091.13;5228545;28;20051;-86
2021/05/16 10:48:05;;;;;;;9.65;2.88;;;;;;;16.76;86.27;100099.16;5227420;28;20036;-86
2021/05/16 10:50:40;;;;;;;10.27;2.67;;;;;;;17.16;79.81;100108.72;5229462;28;20514;-86
2021/05/16 10:53:16;;;;;;;11.98;2.45;;;;;;;16.60;87.72;100105.16;5229489;28;20035;-86
2021/05/16 10:55:48;;;;;;;15.88;2.67;;;;;;;16.23;100.00;100107.78;5227962;28;20437;-86
2021/05/16 10:58:32;;;;;;;10.90;2.28;;;;;;;15.99;100.00;100092.38;5221606;28;20037;-86
2021/05/16 11:01:05;;;;;;;8.48;2.30;;;;;;;16.26;100.00;100091.09;5227122;28;20044;-85
2021/05/16 11:03:45;;;;;;;5.85;1.90;;;;;;;16.42;100.00;100092.41;5210500;28;20047;-85
2021/05/16 11:06:21;;;;;;;6.03;1.88;;;;;;;16.96;83.16;100084.56;5226653;28;20031;-85
2021/05/16 11:08:58;;;;;;;4.95;0.95;;;;;;;16.95;82.35;100082.94;5228752;28;20510;-86
2021/05/16 11:11:30;;;;;;;6.07;1.50;;;;;;;16.81;79.09;100074.94;5227470;28;20025;-85
2021/05/16 11:14:13;;;;;;;6.75;1.20;;;;;;;16.64;79.83;100081.16;5228575;28;20300;-86
2021/05/16 11:16:46;;;;;;;17.17;1.67;;;;;;;16.79;80.51;100079.78;5227699;28;20025;-86
2021/05/16 11:19:20;;;;;;;11.52;1.85;;;;;;;16.11;91.14;100082.47;5229540;28;20025;-85
2021/05/16 11:21:50;;;;;;;8.68;1.80;;;;;;;15.71;98.29;100079.25;5225815;28;20100;-88
2021/05/16 11:24:37;;;;;;;4.22;1.13;;;;;;;15.56;97.73;100084.91;5223489;28;20123;-88
2021/05/16 11:27:13;;;;;;;6.47;1.30;;;;;;;15.21;100.00;100079.06;5223865;28;20163;-88
2021/05/16 11:29:44;;;;;;;10.23;1.40;;;;;;;15.59;100.00;100081.78;5223453;28;20028;-87
2021/05/16 11:32:21;;;;;;;5.72;1.85;;;;;;;15.82;100.00;100077.75;5223628;28;20660;-87
2021/05/16 11:35:04;;;;;;;12.52;2.45;;;;;;;16.18;100.00;100075.16;5224339;28;20492;-87